Observation data for Sundown on 01/20/2019      Previous  Date  Next       Current Mesonet Observations  Soil Data  Daily Summary Page  Observations in Plain Language
KSDS 200600Z 17007KT M02/M06 A3027 RMK A01 T10201059  RH  075%=      5-min Rain = 0
KSDS 200605Z 18007KT M02/M06 A3027 RMK A01 T10181058  RH  074%=      5-min Rain = 0
KSDS 200610Z 17006KT M02/M06 A3027 RMK A01 T10161059  RH  073%=      5-min Rain = 0
KSDS 200615Z 17006KT M02/M06 A3028 RMK A01 T10171059  RH  073%=      5-min Rain = 0
KSDS 200620Z 17007KT M02/M06 A3028 RMK A01 T10161059  RH  073%=      5-min Rain = 0
KSDS 200625Z 18007KT M02/M06 A3028 RMK A01 T10171059  RH  073%=      5-min Rain = 0
KSDS 200630Z 18008KT M02/M06 A3028 RMK A01 T10151055  RH  075%=      5-min Rain = 0
KSDS 200635Z 18009KT M01/M05 A3028 RMK A01 T10131053  RH  075%=      5-min Rain = 0
KSDS 200640Z 17009KT M01/M05 A3028 RMK A01 T10121049  RH  076%=      5-min Rain = 0
KSDS 200645Z 17007KT M01/M05 A3028 RMK A01 T10121051  RH  075%=      5-min Rain = 0
KSDS 200650Z 18007KT M01/M05 A3028 RMK A01 T10141053  RH  075%=      5-min Rain = 0
KSDS 200655Z 18007KT M02/M05 A3028 RMK A01 T10161053  RH  076%=      5-min Rain = 0
KSDS 200700Z 19006KT M02/M05 A3028 RMK A01 T10161053  RH  076%=      5-min Rain = 0
KSDS 200705Z 19006KT M02/M05 A3028 RMK A01 T10151053  RH  076%=      5-min Rain = 0
KSDS 200710Z 19007KT M02/M05 A3028 RMK A01 T10161054  RH  076%=      5-min Rain = 0
KSDS 200715Z 19007KT M02/M06 A3028 RMK A01 T10181055  RH  076%=      5-min Rain = 0
KSDS 200720Z 19008KT M02/M06 A3028 RMK A01 T10201056  RH  077%=      5-min Rain = 0
KSDS 200725Z 18008KT M02/M06 A3028 RMK A01 T10201056  RH  077%=      5-min Rain = 0
KSDS 200730Z 18008KT M02/M05 A3027 RMK A01 T10151052  RH  076%=      5-min Rain = 0
KSDS 200735Z 18009KT M01/M05 A3027 RMK A01 T10061047  RH  074%=      5-min Rain = 0
KSDS 200740Z 18010KT M00/M05 A3026 RMK A01 T10021048  RH  071%=      5-min Rain = 0
KSDS 200745Z 18009KT M00/M05 A3026 RMK A01 T10021049  RH  071%=      5-min Rain = 0
KSDS 200750Z 18009KT M00/M05 A3026 RMK A01 T10031050  RH  071%=      5-min Rain = 0
KSDS 200755Z 18008KT M00/M05 A3026 RMK A01 T10031050  RH  071%=      5-min Rain = 0
KSDS 200800Z 18009KT M00/M05 A3026 RMK A01 T10041050  RH  071%=      5-min Rain = 0
KSDS 200805Z 18008KT M01/M05 A3026 RMK A01 T10051050  RH  072%=      5-min Rain = 0
KSDS 200810Z 18009KT M01/M05 A3026 RMK A01 T10051049  RH  072%=      5-min Rain = 0
KSDS 200815Z 17009KT M00/M05 A3025 RMK A01 T10031049  RH  071%=      5-min Rain = 0
KSDS 200820Z 17008KT M01/M05 A3026 RMK A01 T10061050  RH  072%=      5-min Rain = 0
KSDS 200825Z 17008KT M01/M05 A3025 RMK A01 T10071050  RH  073%=      5-min Rain = 0
KSDS 200830Z 17009KT M01/M05 A3025 RMK A01 T10051049  RH  072%=      5-min Rain = 0
KSDS 200835Z 17008KT M01/M05 A3025 RMK A01 T10051049  RH  073%=      5-min Rain = 0
KSDS 200840Z 17009KT M01/M05 A3025 RMK A01 T10051049  RH  073%=      5-min Rain = 0
KSDS 200845Z 17008KT M01/M05 A3026 RMK A01 T10061049  RH  073%=      5-min Rain = 0
KSDS 200850Z 17009KT M01/M05 A3025 RMK A01 T10061049  RH  073%=      5-min Rain = 0
KSDS 200855Z 17009KT M01/M05 A3025 RMK A01 T10061049  RH  073%=      5-min Rain = 0
KSDS 200900Z 17008KT M01/M05 A3025 RMK A01 T10061049  RH  073%=      5-min Rain = 0
KSDS 200905Z 16008KT M01/M05 A3026 RMK A01 T10061048  RH  074%=      5-min Rain = 0
KSDS 200910Z 16008KT M01/M05 A3026 RMK A01 T10081048  RH  075%=      5-min Rain = 0
KSDS 200915Z 17008KT M01/M05 A3026 RMK A01 T10101048  RH  075%=      5-min Rain = 0
KSDS 200920Z 17008KT M01/M05 A3025 RMK A01 T10111049  RH  076%=      5-min Rain = 0
KSDS 200925Z 17008KT M01/M05 A3025 RMK A01 T10131049  RH  076%=      5-min Rain = 0
KSDS 200930Z 17008KT M02/M05 A3025 RMK A01 T10151050  RH  077%=      5-min Rain = 0
KSDS 200935Z 17007KT M02/M05 A3025 RMK A01 T10161050  RH  078%=      5-min Rain = 0
KSDS 200940Z 17007KT M02/M05 A3025 RMK A01 T10181051  RH  078%=      5-min Rain = 0
KSDS 200945Z 17008KT M02/M05 A3025 RMK A01 T10191051  RH  079%=      5-min Rain = 0
KSDS 200950Z 18007KT M02/M05 A3025 RMK A01 T10201051  RH  080%=      5-min Rain = 0
KSDS 200955Z 17007KT M02/M05 A3025 RMK A01 T10201051  RH  080%=      5-min Rain = 0
KSDS 201000Z 17006KT M02/M05 A3025 RMK A01 T10231053  RH  080%=      5-min Rain = 0
KSDS 201005Z 17006KT M03/M05 A3025 RMK A01 T10251054  RH  081%=      5-min Rain = 0
KSDS 201010Z 16006KT M03/M06 A3025 RMK A01 T10271055  RH  081%=      5-min Rain = 0
KSDS 201015Z 16007KT M03/M06 A3025 RMK A01 T10281055  RH  082%=      5-min Rain = 0
KSDS 201020Z 16007KT M03/M06 A3024 RMK A01 T10281055  RH  082%=      5-min Rain = 0
KSDS 201025Z 16006KT M03/M05 A3024 RMK A01 T10281054  RH  082%=      5-min Rain = 0
KSDS 201030Z 17006KT M03/M06 A3024 RMK A01 T10301056  RH  082%=      5-min Rain = 0
KSDS 201035Z 16006KT M03/M06 A3024 RMK A01 T10321057  RH  083%=      5-min Rain = 0
KSDS 201040Z 15006KT M03/M06 A3024 RMK A01 T10321055  RH  084%=      5-min Rain = 0
KSDS 201045Z 16006KT M03/M05 A3024 RMK A01 T10311054  RH  084%=      5-min Rain = 0
KSDS 201050Z 16006KT M03/M05 A3024 RMK A01 T10301054  RH  084%=      5-min Rain = 0
KSDS 201055Z 16006KT M03/M06 A3024 RMK A01 T10311055  RH  084%=      5-min Rain = 0
KSDS 201100Z 15006KT M03/M05 A3024 RMK A01 T10311054  RH  084%=      5-min Rain = 0
KSDS 201105Z 16005KT M03/M06 A3024 RMK A01 T10311055  RH  084%=      5-min Rain = 0
KSDS 201110Z 15006KT M03/M06 A3024 RMK A01 T10321055  RH  084%=      5-min Rain = 0
KSDS 201115Z 15005KT M03/M06 A3024 RMK A01 T10321055  RH  084%=      5-min Rain = 0
KSDS 201120Z 16006KT M03/M06 A3023 RMK A01 T10331056  RH  084%=      5-min Rain = 0
KSDS 201125Z 16007KT M04/M06 A3023 RMK A01 T10351058  RH  085%=      5-min Rain = 0
KSDS 201130Z 16007KT M04/M06 A3023 RMK A01 T10401061  RH  085%=      5-min Rain = 0
KSDS 201135Z 16007KT M04/M06 A3023 RMK A01 T10391059  RH  087%=      5-min Rain = 0
KSDS 201140Z 16008KT M04/M06 A3023 RMK A01 T10371057  RH  086%=      5-min Rain = 0
KSDS 201145Z 16008KT M04/M06 A3023 RMK A01 T10371057  RH  086%=      5-min Rain = 0
KSDS 201150Z 17008KT M04/M06 A3023 RMK A01 T10361056  RH  087%=      5-min Rain = 0
KSDS 201155Z 17008KT M03/M05 A3022 RMK A01 T10321052  RH  086%=      5-min Rain = 0
KSDS 201200Z 17008KT M03/M05 A3022 RMK A01 T10281050  RH  085%=      5-min Rain = 0
KSDS 201205Z 17008KT M03/M05 A3022 RMK A01 T10261049  RH  084%=      5-min Rain = 0
KSDS 201210Z 16008KT M03/M05 A3022 RMK A01 T10261050  RH  084%=      5-min Rain = 0
KSDS 201215Z 16008KT M03/M05 A3022 RMK A01 T10271051  RH  084%=      5-min Rain = 0
KSDS 201220Z 17008KT M03/M05 A3022 RMK A01 T10281051  RH  084%=      5-min Rain = 0
KSDS 201225Z 17008KT M03/M05 A3022 RMK A01 T10281050  RH  085%=      5-min Rain = 0
KSDS 201230Z 17008KT M03/M05 A3022 RMK A01 T10271050  RH  085%=      5-min Rain = 0
KSDS 201235Z 17008KT M03/M05 A3022 RMK A01 T10271050  RH  085%=      5-min Rain = 0
KSDS 201240Z 17007KT M03/M05 A3022 RMK A01 T10291051  RH  085%=      5-min Rain = 0
KSDS 201245Z 17007KT M03/M05 A3022 RMK A01 T10301052  RH  085%=      5-min Rain = 0
KSDS 201250Z 17007KT M03/M05 A3022 RMK A01 T10321053  RH  086%=      5-min Rain = 0
KSDS 201255Z 17007KT M03/M06 A3022 RMK A01 T10341055  RH  086%=      5-min Rain = 0
KSDS 201300Z 17007KT M04/M06 A3022 RMK A01 T10371057  RH  086%=      5-min Rain = 0
KSDS 201305Z 18007KT M04/M06 A3022 RMK A01 T10391057  RH  087%=      5-min Rain = 0
KSDS 201310Z 18007KT M04/M06 A3022 RMK A01 T10401059  RH  087%=      5-min Rain = 0
KSDS 201315Z 19007KT M04/M06 A3023 RMK A01 T10421059  RH  088%=      5-min Rain = 0
KSDS 201320Z 19007KT M04/M06 A3023 RMK A01 T10411058  RH  088%=      5-min Rain = 0
KSDS 201325Z 18007KT M04/M06 A3023 RMK A01 T10401057  RH  088%=      5-min Rain = 0
KSDS 201330Z 18007KT M04/M06 A3023 RMK A01 T10391056  RH  088%=      5-min Rain = 0
KSDS 201335Z 19007KT M04/M06 A3023 RMK A01 T10371055  RH  088%=      5-min Rain = 0
KSDS 201340Z 19007KT M04/M06 A3023 RMK A01 T10371055  RH  088%=      5-min Rain = 0
KSDS 201345Z 18007KT M04/M06 A3023 RMK A01 T10381056  RH  087%=      5-min Rain = 0
KSDS 201350Z 18007KT M04/M06 A3023 RMK A01 T10391057  RH  088%=      5-min Rain = 0
KSDS 201355Z 19007KT M04/M06 A3023 RMK A01 T10391056  RH  088%=      5-min Rain = 0
KSDS 201400Z 19007KT M04/M06 A3023 RMK A01 T10381055  RH  088%=      5-min Rain = 0
KSDS 201405Z 18007KT M04/M05 A3023 RMK A01 T10371054  RH  088%=      5-min Rain = 0
KSDS 201410Z 18007KT M03/M05 A3023 RMK A01 T10341052  RH  088%=      5-min Rain = 0
KSDS 201415Z 18006KT M03/M05 A3023 RMK A01 T10321050  RH  088%=      5-min Rain = 0
KSDS 201420Z 18006KT M03/M05 A3023 RMK A01 T10301049  RH  087%=      5-min Rain = 0
KSDS 201425Z 18006KT M03/M05 A3023 RMK A01 T10251046  RH  086%=      5-min Rain = 0
KSDS 201430Z 18006KT M02/M04 A3023 RMK A01 T10191042  RH  085%=      5-min Rain = 0
KSDS 201435Z 18007KT M01/M04 A3023 RMK A01 T10141040  RH  083%=      5-min Rain = 0
KSDS 201440Z 18007KT M01/M04 A3023 RMK A01 T10091038  RH  081%=      5-min Rain = 0
KSDS 201445Z 17007KT M00/M04 A3023 RMK A01 T10041037  RH  079%=      5-min Rain = 0
KSDS 201450Z 18008KT M00/M04 A3023 RMK A01 T10021036  RH  079%=      5-min Rain = 0
KSDS 201455Z 18008KT M00/M04 A3023 RMK A01 T10011035  RH  078%=      5-min Rain = 0
KSDS 201500Z 19008KT 00/04 A3023 RMK A01 T00000-35  RH  077%=      5-min Rain = 0
KSDS 201505Z 19008KT 00/04 A3023 RMK A01 T00000-36  RH  077%=      5-min Rain = 0
KSDS 201510Z 19008KT 00/04 A3023 RMK A01 T00000-36  RH  077%=      5-min Rain = 0
KSDS 201515Z 19008KT 00/M04 A3023 RMK A01 T00031035  RH  076%=      5-min Rain = 0
KSDS 201520Z 19008KT 01/M03 A3023 RMK A01 T00091032  RH  074%=      5-min Rain = 0
KSDS 201525Z 19008KT 01/M03 A3023 RMK A01 T00131031  RH  073%=      5-min Rain = 0
KSDS 201530Z 19008KT 02/M03 A3023 RMK A01 T00201028  RH  071%=      5-min Rain = 0
KSDS 201535Z 19008KT 02/M03 A3023 RMK A01 T00241029  RH  069%=      5-min Rain = 0
KSDS 201540Z 18009KT 03/M03 A3023 RMK A01 T00271029  RH  067%=      5-min Rain = 0
KSDS 201545Z 18009KT 03/M03 A3022 RMK A01 T00311029  RH  065%=      5-min Rain = 0
KSDS 201550Z 19009KT 03/M03 A3022 RMK A01 T00341029  RH  064%=      5-min Rain = 0
KSDS 201555Z 20009KT 04/M03 A3022 RMK A01 T00421027  RH  062%=      5-min Rain = 0
KSDS 201600Z 19010KT 04/M03 A3022 RMK A01 T00431029  RH  060%=      5-min Rain = 0
KSDS 201605Z 20009KT 05/M03 A3022 RMK A01 T00461029  RH  059%=      5-min Rain = 0
KSDS 201610Z 20010KT 05/M03 A3022 RMK A01 T00481029  RH  057%=      5-min Rain = 0
KSDS 201615Z 20010KT 05/M03 A3022 RMK A01 T00521030  RH  056%=      5-min Rain = 0
KSDS 201620Z 20010KT 06/M03 A3022 RMK A01 T00571028  RH  054%=      5-min Rain = 0
KSDS 201625Z 20011KT 06/M03 A3022 RMK A01 T00601030  RH  053%=      5-min Rain = 0
KSDS 201630Z 21009KT 07/M03 A3022 RMK A01 T00681028  RH  051%=      5-min Rain = 0
KSDS 201635Z 20009KT 07/M03 A3022 RMK A01 T00741028  RH  049%=      5-min Rain = 0
KSDS 201640Z 22010KT 08/M03 A3022 RMK A01 T00751031  RH  047%=      5-min Rain = 0
KSDS 201645Z 22010KT 08/M03 A3022 RMK A01 T00781034  RH  045%=      5-min Rain = 0
KSDS 201650Z 22009KT 08/M04 A3023 RMK A01 T00801035  RH  044%=      5-min Rain = 0
KSDS 201655Z 21009KT 09/M03 A3023 RMK A01 T00871033  RH  043%=      5-min Rain = 0
KSDS 201700Z 22009KT 09/M04 A3023 RMK A01 T00881035  RH  042%=      5-min Rain = 0
KSDS 201705Z 21010KT 09/M04 A3023 RMK A01 T00911035  RH  041%=      5-min Rain = 0
KSDS 201710Z 21008KT 10/M04 A3022 RMK A01 T00991035  RH  039%=      5-min Rain = 0
KSDS 201715Z 22009KT 10/M04 A3022 RMK A01 T00991040  RH  037%=      5-min Rain = 0
KSDS 201720Z 22010KT 10/M04 A3022 RMK A01 T01011044  RH  036%=      5-min Rain = 0
KSDS 201725Z 22008KT 11/M04 A3022 RMK A01 T01051043  RH  035%=      5-min Rain = 0
KSDS 201730Z 22009KT 11/M05 A3021 RMK A01 T01071046  RH  034%=      5-min Rain = 0
KSDS 201735Z 22009KT 11/M05 A3021 RMK A01 T01081048  RH  033%=      5-min Rain = 0
KSDS 201740Z 22007KT 12/M05 A3021 RMK A01 T01151048  RH  032%=      5-min Rain = 0
KSDS 201745Z 23009KT 12/M05 A3021 RMK A01 T01201052  RH  030%=      5-min Rain = 0
KSDS 201750Z 24010KT 12/M06 A302 RMK A01 T01161061  RH  029%=      5-min Rain = 0
KSDS 201755Z 23010KT 12/M06 A302 RMK A01 T01171060  RH  029%=      5-min Rain = 0
KSDS 201800Z 23010KT 12/M06 A302 RMK A01 T01191060  RH  028%=      5-min Rain = 0
KSDS 201805Z 23010KT 12/M06 A302 RMK A01 T01191058  RH  029%=      5-min Rain = 0
KSDS 201810Z 23009KT 12/M06 A302 RMK A01 T01241056  RH  028%=      5-min Rain = 0
KSDS 201815Z 23009KT 13/M06 A302 RMK A01 T01271055  RH  028%=      5-min Rain = 0
KSDS 201820Z 21010KT 13/M06 A3019 RMK A01 T01291057  RH  027%=      5-min Rain = 0
KSDS 201825Z 23010KT 13/M06 A3019 RMK A01 T01311056  RH  027%=      5-min Rain = 0
KSDS 201830Z 22010G15KT 14/M06 A3018 RMK A01 T01361060  RH  025%=      5-min Rain = 0
KSDS 201835Z 22011KT 14/M06 A3018 RMK A01 T01391064  RH  024%=      5-min Rain = 0
KSDS 201840Z 23011KT 14/M06 A3017 RMK A01 T01421064  RH  023%=      5-min Rain = 0
KSDS 201845Z 22011KT 15/M06 A3017 RMK A01 T01461064  RH  023%=      5-min Rain = 0
KSDS 201850Z 23013KT 14/M07 A3017 RMK A01 T01441066  RH  023%=      5-min Rain = 0
KSDS 201855Z 23013G19KT 15/M07 A3016 RMK A01 T01471067  RH  022%=      5-min Rain = 0
KSDS 201900Z 22013KT 15/M07 A3016 RMK A01 T01521067  RH  021%=      5-min Rain = 0
KSDS 201905Z 23014KT 16/M07 A3015 RMK A01 T01551067  RH  021%=      5-min Rain = 0
KSDS 201910Z 22015KT 16/M07 A3014 RMK A01 T01581074  RH  020%=      5-min Rain = 0
KSDS 201915Z 23013G18KT 16/M07 A3014 RMK A01 T01601073  RH  019%=      5-min Rain = 0
KSDS 201920Z 23014KT 16/M07 A3014 RMK A01 T01621072  RH  019%=      5-min Rain = 0
KSDS 201925Z 23013KT 17/M07 A3013 RMK A01 T01651072  RH  019%=      5-min Rain = 0
KSDS 201930Z 23012G17KT 16/M07 A3013 RMK A01 T01641074  RH  019%=      5-min Rain = 0
KSDS 201935Z 23013G18KT 17/M07 A3012 RMK A01 T01701074  RH  018%=      5-min Rain = 0
KSDS 201940Z 23013G18KT 17/M07 A3012 RMK A01 T01701074  RH  018%=      5-min Rain = 0
KSDS 201945Z 23012G17KT 17/M08 A3012 RMK A01 T01721078  RH  017%=      5-min Rain = 0
KSDS 201950Z 22013G18KT 17/M08 A3012 RMK A01 T01711080  RH  017%=      5-min Rain = 0
KSDS 201955Z 23012G17KT 17/M08 A3011 RMK A01 T01691079  RH  018%=      5-min Rain = 0
KSDS 202000Z 21011G16KT 17/M08 A3011 RMK A01 T01701079  RH  018%=      5-min Rain = 0
KSDS 202005Z 22012KT 17/M08 A3011 RMK A01 T01711079  RH  017%=      5-min Rain = 0
KSDS 202010Z 22011KT 18/M08 A301 RMK A01 T01761078  RH  017%=      5-min Rain = 0
KSDS 202015Z 23011KT 17/M08 A301 RMK A01 T01741079  RH  017%=      5-min Rain = 0
KSDS 202020Z 23013G19KT 17/M08 A301 RMK A01 T01701084  RH  017%=      5-min Rain = 0
KSDS 202025Z 22012KT 17/M08 A301 RMK A01 T01731081  RH  017%=      5-min Rain = 0
KSDS 202030Z 22012KT 18/M08 A301 RMK A01 T01801080  RH  016%=      5-min Rain = 0
KSDS 202035Z 23012G17KT 18/M08 A3009 RMK A01 T01801080  RH  016%=      5-min Rain = 0
KSDS 202040Z 23010G16KT 18/M08 A3009 RMK A01 T01791080  RH  016%=      5-min Rain = 0
KSDS 202045Z 22011G16KT 18/M08 A3009 RMK A01 T01801078  RH  016%=      5-min Rain = 0
KSDS 202050Z 23012KT 18/M08 A3008 RMK A01 T01801079  RH  016%=      5-min Rain = 0
KSDS 202055Z 22012G17KT 18/M08 A3008 RMK A01 T01791080  RH  016%=      5-min Rain = 0
KSDS 202100Z 21013G19KT 18/M08 A3008 RMK A01 T01791080  RH  016%=      5-min Rain = 0
KSDS 202105Z 22012KT 18/M08 A3008 RMK A01 T01811079  RH  016%=      5-min Rain = 0
KSDS 202110Z 21011KT 18/M08 A3007 RMK A01 T01841077  RH  016%=      5-min Rain = 0
KSDS 202115Z 21012G17KT 19/M08 A3007 RMK A01 T01871078  RH  016%=      5-min Rain = 0
KSDS 202120Z 22010KT 19/M08 A3007 RMK A01 T01871080  RH  016%=      5-min Rain = 0
KSDS 202125Z 23012G17KT 19/M08 A3007 RMK A01 T01881080  RH  016%=      5-min Rain = 0
KSDS 202130Z 22010G16KT 19/M08 A3007 RMK A01 T01891080  RH  015%=      5-min Rain = 0
KSDS 202135Z 22011G16KT 19/M08 A3007 RMK A01 T01891081  RH  015%=      5-min Rain = 0
KSDS 202140Z 23012KT 19/M08 A3006 RMK A01 T01871081  RH  015%=      5-min Rain = 0
KSDS 202145Z 21012KT 19/M08 A3006 RMK A01 T01871081  RH  015%=      5-min Rain = 0
KSDS 202150Z 22012KT 19/M08 A3006 RMK A01 T01891081  RH  015%=      5-min Rain = 0
KSDS 202155Z 22012KT 19/M08 A3006 RMK A01 T01881082  RH  015%=      5-min Rain = 0
KSDS 202200Z 22011G17KT 19/M08 A3006 RMK A01 T01881082  RH  015%=      5-min Rain = 0
KSDS 202205Z 21013KT 19/M08 A3006 RMK A01 T01891083  RH  015%=      5-min Rain = 0
KSDS 202210Z 21012KT 19/M08 A3006 RMK A01 T01891083  RH  015%=      5-min Rain = 0
KSDS 202215Z 23011KT 19/M08 A3006 RMK A01 T01901084  RH  015%=      5-min Rain = 0
KSDS 202220Z 21013KT 19/M08 A3006 RMK A01 T01871084  RH  015%=      5-min Rain = 0
KSDS 202225Z 23010KT 19/M08 A3006 RMK A01 T01871084  RH  015%=      5-min Rain = 0
KSDS 202230Z 21011KT 19/M08 A3006 RMK A01 T01851084  RH  015%=      5-min Rain = 0
KSDS 202235Z 22011KT 19/M08 A3006 RMK A01 T01861084  RH  015%=      5-min Rain = 0
KSDS 202240Z 21012KT 19/M08 A3006 RMK A01 T01851084  RH  015%=      5-min Rain = 0
KSDS 202245Z 22012KT 18/M09 A3006 RMK A01 T01781085  RH  016%=      5-min Rain = 0
KSDS 202250Z 22011KT 18/M08 A3006 RMK A01 T01751084  RH  016%=      5-min Rain = 0
KSDS 202255Z 20011KT 17/M08 A3006 RMK A01 T01731084  RH  016%=      5-min Rain = 0
KSDS 202300Z 20012KT 17/M08 A3006 RMK A01 T01721083  RH  017%=      5-min Rain = 0
KSDS 202305Z 21009KT 17/M08 A3006 RMK A01 T01711081  RH  017%=      5-min Rain = 0
KSDS 202310Z 20010KT 17/M08 A3006 RMK A01 T01741080  RH  017%=      5-min Rain = 0
KSDS 202315Z 20009KT 17/M08 A3006 RMK A01 T01731078  RH  017%=      5-min Rain = 0
KSDS 202320Z 20008KT 17/M08 A3006 RMK A01 T01681076  RH  018%=      5-min Rain = 0
KSDS 202325Z 20007KT 17/M08 A3006 RMK A01 T01651077  RH  018%=      5-min Rain = 0
KSDS 202330Z 20007KT 16/M08 A3005 RMK A01 T01621077  RH  019%=      5-min Rain = 0
KSDS 202335Z 20008KT 16/M08 A3005 RMK A01 T01581079  RH  019%=      5-min Rain = 0
KSDS 202340Z 20007KT 15/M08 A3005 RMK A01 T01541079  RH  019%=      5-min Rain = 0
KSDS 202345Z 20007KT 15/M08 A3005 RMK A01 T01471078  RH  020%=      5-min Rain = 0
KSDS 202350Z 20008KT 14/M08 A3005 RMK A01 T01421076  RH  021%=      5-min Rain = 0
KSDS 202355Z 20008KT 14/M08 A3005 RMK A01 T01381075  RH  022%=      5-min Rain = 0
KSDS 210000Z 20008KT 13/M08 A3005 RMK A01 T01321075  RH  023%=      5-min Rain = 0
KSDS 210005Z 20008KT 13/M07 A3005 RMK A01 T01261073  RH  024%=      5-min Rain = 0
KSDS 210010Z 20009KT 12/M07 A3005 RMK A01 T01241071  RH  025%=      5-min Rain = 0
KSDS 210015Z 20009KT 12/M07 A3005 RMK A01 T01241071  RH  025%=      5-min Rain = 0
KSDS 210020Z 20009KT 12/M07 A3005 RMK A01 T01201072  RH  026%=      5-min Rain = 0
KSDS 210025Z 20009KT 11/M07 A3005 RMK A01 T01131072  RH  027%=      5-min Rain = 0
KSDS 210030Z 20009KT 11/M07 A3005 RMK A01 T01111072  RH  027%=      5-min Rain = 0
KSDS 210035Z 20008KT 11/M07 A3005 RMK A01 T01061072  RH  028%=      5-min Rain = 0
KSDS 210040Z 19009KT 10/M07 A3005 RMK A01 T00971073  RH  029%=      5-min Rain = 0
KSDS 210045Z 19009KT 10/M07 A3004 RMK A01 T00981072  RH  029%=      5-min Rain = 0
KSDS 210050Z 19009KT 10/M07 A3004 RMK A01 T00961073  RH  030%=      5-min Rain = 0
KSDS 210055Z 19009KT 10/M07 A3004 RMK A01 T00961073  RH  030%=      5-min Rain = 0
KSDS 210100Z 19009KT 09/M07 A3004 RMK A01 T00931073  RH  030%=      5-min Rain = 0
KSDS 210105Z 19010KT 09/M07 A3004 RMK A01 T00911072  RH  031%=      5-min Rain = 0
KSDS 210110Z 19009KT 09/M07 A3004 RMK A01 T00911071  RH  031%=      5-min Rain = 0
KSDS 210115Z 19009KT 09/M07 A3004 RMK A01 T00921071  RH  031%=      5-min Rain = 0
KSDS 210120Z 19009KT 09/M07 A3004 RMK A01 T00911071  RH  031%=      5-min Rain = 0
KSDS 210125Z 19009KT 09/M07 A3004 RMK A01 T00901071  RH  031%=      5-min Rain = 0
KSDS 210130Z 19009KT 09/M07 A3004 RMK A01 T00871070  RH  032%=      5-min Rain = 0
KSDS 210135Z 19009KT 09/M07 A3004 RMK A01 T00851070  RH  033%=      5-min Rain = 0
KSDS 210140Z 19009KT 08/M07 A3004 RMK A01 T00831071  RH  033%=      5-min Rain = 0
KSDS 210145Z 19009KT 08/M07 A3004 RMK A01 T00821071  RH  033%=      5-min Rain = 0
KSDS 210150Z 19009KT 08/M07 A3004 RMK A01 T00801071  RH  034%=      5-min Rain = 0
KSDS 210155Z 19008KT 08/M07 A3004 RMK A01 T00751071  RH  035%=      5-min Rain = 0
KSDS 210200Z 20008KT 07/M07 A3003 RMK A01 T00721071  RH  035%=      5-min Rain = 0
KSDS 210205Z 20009KT 08/M07 A3003 RMK A01 T00751071  RH  035%=      5-min Rain = 0
KSDS 210210Z 19009KT 08/M07 A3003 RMK A01 T00791071  RH  034%=      5-min Rain = 0
KSDS 210215Z 20010KT 08/M07 A3003 RMK A01 T00821071  RH  033%=      5-min Rain = 0
KSDS 210220Z 20010KT 09/M07 A3003 RMK A01 T00851072  RH  032%=      5-min Rain = 0
KSDS 210225Z 19010KT 08/M07 A3003 RMK A01 T00841072  RH  032%=      5-min Rain = 0
KSDS 210230Z 19010KT 09/M07 A3002 RMK A01 T00851072  RH  032%=      5-min Rain = 0
KSDS 210235Z 19010KT 08/M07 A3002 RMK A01 T00841071  RH  032%=      5-min Rain = 0
KSDS 210240Z 20010KT 08/M07 A3002 RMK A01 T00831071  RH  033%=      5-min Rain = 0
KSDS 210245Z 20010KT 08/M07 A3002 RMK A01 T00821070  RH  033%=      5-min Rain = 0
KSDS 210250Z 20010KT 08/M07 A3002 RMK A01 T00811070  RH  033%=      5-min Rain = 0
KSDS 210255Z 20009KT 08/M07 A3002 RMK A01 T00801070  RH  034%=      5-min Rain = 0
KSDS 210300Z 20009KT 08/M07 A3001 RMK A01 T00781070  RH  034%=      5-min Rain = 0
KSDS 210305Z 20009KT 08/M07 A3001 RMK A01 T00761070  RH  035%=      5-min Rain = 0
KSDS 210310Z 20009KT 07/M07 A3001 RMK A01 T00741070  RH  035%=      5-min Rain = 0
KSDS 210315Z 19009KT 07/M07 A3001 RMK A01 T00711070  RH  036%=      5-min Rain = 0
KSDS 210320Z 19009KT 07/M07 A3001 RMK A01 T00711070  RH  036%=      5-min Rain = 0
KSDS 210325Z 20009KT 07/M07 A3001 RMK A01 T00681070  RH  037%=      5-min Rain = 0
KSDS 210330Z 19009KT 07/M07 A30 RMK A01 T00661070  RH  037%=      5-min Rain = 0
KSDS 210335Z 20008KT 07/M07 A30 RMK A01 T00651071  RH  037%=      5-min Rain = 0
KSDS 210340Z 20009KT 06/M07 A30 RMK A01 T00621071  RH  038%=      5-min Rain = 0
KSDS 210345Z 20009KT 06/M07 A30 RMK A01 T00621071  RH  038%=      5-min Rain = 0
KSDS 210350Z 20009KT 06/M07 A3001 RMK A01 T00581072  RH  039%=      5-min Rain = 0
KSDS 210355Z 20009KT 05/M07 A3001 RMK A01 T00531072  RH  040%=      5-min Rain = 0
KSDS 210400Z 20009KT 05/M07 A3001 RMK A01 T00511072  RH  041%=      5-min Rain = 0
KSDS 210405Z 20009KT 05/M07 A3001 RMK A01 T00541071  RH  040%=      5-min Rain = 0
KSDS 210410Z 20009KT 06/M07 A3002 RMK A01 T00591071  RH  039%=      5-min Rain = 0
KSDS 210415Z 20009KT 06/M07 A3002 RMK A01 T00561072  RH  039%=      5-min Rain = 0
KSDS 210420Z 20009KT 05/M07 A3002 RMK A01 T00511072  RH  040%=      5-min Rain = 0
KSDS 210425Z 19009KT 05/M07 A3002 RMK A01 T00531072  RH  040%=      5-min Rain = 0
KSDS 210430Z 19009KT 06/M07 A3002 RMK A01 T00591070  RH  039%=      5-min Rain = 0
KSDS 210435Z 19009KT 06/M07 A3002 RMK A01 T00611067  RH  040%=      5-min Rain = 0
KSDS 210440Z 19009KT 06/M06 A3002 RMK A01 T00621064  RH  040%=      5-min Rain = 0
KSDS 210445Z 20010KT 06/M06 A3002 RMK A01 T00621062  RH  041%=      5-min Rain = 0
KSDS 210450Z 20011KT 06/M06 A3002 RMK A01 T00621060  RH  041%=      5-min Rain = 0
KSDS 210455Z 19012KT 07/M05 A3002 RMK A01 T00651054  RH  042%=      5-min Rain = 0
KSDS 210500Z 19012KT 07/M05 A3001 RMK A01 T00691048  RH  043%=      5-min Rain = 0
KSDS 210505Z 19011KT 07/M05 A3001 RMK A01 T00691046  RH  044%=      5-min Rain = 0
KSDS 210510Z 19011KT 07/M04 A3001 RMK A01 T00691044  RH  045%=      5-min Rain = 0
KSDS 210515Z 19010KT 07/M04 A3001 RMK A01 T00661044  RH  045%=      5-min Rain = 0
KSDS 210520Z 19009KT 06/M04 A3001 RMK A01 T00611044  RH  047%=      5-min Rain = 0
KSDS 210525Z 19009KT 06/M05 A3001 RMK A01 T00581045  RH  048%=      5-min Rain = 0
KSDS 210530Z 19008KT 06/M05 A3001 RMK A01 T00551045  RH  049%=      5-min Rain = 0
KSDS 210535Z 19008KT 05/M05 A3001 RMK A01 T00511045  RH  050%=      5-min Rain = 0
KSDS 210540Z 19008KT 05/M05 A3001 RMK A01 T00491045  RH  051%=      5-min Rain = 0
KSDS 210545Z 19008KT 05/M04 A3001 RMK A01 T00481044  RH  052%=      5-min Rain = 0
KSDS 210550Z 19008KT 05/M04 A3001 RMK A01 T00461044  RH  052%=      5-min Rain = 0
KSDS 210555Z 19008KT 04/M04 A3001 RMK A01 T00441044  RH  053%=      5-min Rain = 0

Page generated in 0.0194 seconds.